createdAt,value
2018-04-08T00:00:12.284Z,12.57
2018-04-08T00:02:39.832Z,10.67
2018-04-08T00:05:07.398Z,11.80
2018-04-08T00:07:34.943Z,12.03
2018-04-08T00:10:03.272Z,11.70
2018-04-08T00:12:30.820Z,11.43
2018-04-08T00:14:58.384Z,11.80
2018-04-08T00:17:25.931Z,12.27
2018-04-08T00:19:54.264Z,12.43
2018-04-08T00:22:21.817Z,12.83
2018-04-08T00:24:49.379Z,12.13
2018-04-08T00:27:16.926Z,11.37
2018-04-08T00:29:44.501Z,11.83
2018-04-08T00:32:12.048Z,11.60
2018-04-08T00:34:39.616Z,10.93
2018-04-08T00:37:07.176Z,12.00
2018-04-08T00:39:38.899Z,11.73
2018-04-08T00:42:07.203Z,11.30
2018-04-08T00:44:34.741Z,11.37
2018-04-08T00:47:02.292Z,13.60
2018-04-08T00:49:29.847Z,13.17
2018-04-08T00:51:57.404Z,12.80
2018-04-08T00:54:30.969Z,11.07
2018-04-08T00:56:59.309Z,11.93
2018-04-08T00:59:26.853Z,13.17
2018-04-08T01:01:55.180Z,12.33
2018-04-08T01:04:22.723Z,12.43
2018-04-08T01:06:50.288Z,13.70
2018-04-08T01:09:18.597Z,12.47
2018-04-08T01:11:46.162Z,12.03
2018-04-08T01:14:13.709Z,12.47
2018-04-08T01:16:42.042Z,13.03
2018-04-08T01:19:09.582Z,12.60
2018-04-08T01:21:37.146Z,12.00
2018-04-08T01:24:05.459Z,12.13
2018-04-08T01:26:33.034Z,13.90
2018-04-08T01:29:00.582Z,13.80
2018-04-08T01:31:28.918Z,13.07
2018-04-08T01:33:56.464Z,13.33
2018-04-08T01:36:24.040Z,12.60
2018-04-08T01:38:51.579Z,12.37
2018-04-08T01:41:19.908Z,12.23
2018-04-08T01:43:47.454Z,12.53
2018-04-08T01:46:15.021Z,13.13
2018-04-08T01:48:42.572Z,12.40
2018-04-08T01:51:10.137Z,11.03
2018-04-08T01:53:38.453Z,11.60
2018-04-08T01:56:06.785Z,12.93
2018-04-08T01:58:34.334Z,12.60
2018-04-08T02:01:01.917Z,12.00
2018-04-08T02:03:29.460Z,14.23
2018-04-08T02:05:57.009Z,13.30
2018-04-08T02:08:24.576Z,11.77
2018-04-08T02:10:52.156Z,12.93
2018-04-08T02:13:20.480Z,13.87
2018-04-08T02:15:48.025Z,13.93
2018-04-08T02:18:16.360Z,14.47
2018-04-08T02:20:43.910Z,13.90
2018-04-08T02:23:11.477Z,13.07
2018-04-08T02:25:39.016Z,11.50
2018-04-08T02:28:06.580Z,12.33
2018-04-08T02:30:34.138Z,12.20
2018-04-08T02:33:01.704Z,11.80
2018-04-08T02:35:29.246Z,12.13
2018-04-08T02:37:56.814Z,11.53
2018-04-08T02:40:24.351Z,12.00
2018-04-08T02:42:51.921Z,11.70
2018-04-08T02:45:20.238Z,12.13
2018-04-08T02:47:47.808Z,12.03
2018-04-08T02:50:15.364Z,12.10
2018-04-08T02:52:42.945Z,11.37
2018-04-08T02:55:10.495Z,11.60
2018-04-08T02:57:38.829Z,12.93
2018-04-08T03:00:06.380Z,11.70
2018-04-08T03:02:33.952Z,11.80
2018-04-08T03:05:01.496Z,12.77
2018-04-08T03:07:29.832Z,12.80
2018-04-08T03:09:57.393Z,12.67
2018-04-08T03:12:24.980Z,11.77
2018-04-08T03:14:52.529Z,11.90
2018-04-08T03:17:20.069Z,12.40
2018-04-08T03:19:47.641Z,12.80
2018-04-08T03:22:15.188Z,11.93
2018-04-08T03:24:43.144Z,12.10
2018-04-08T03:27:11.525Z,11.87
2018-04-08T03:29:39.104Z,12.13
2018-04-08T03:32:06.655Z,12.47
2018-04-08T03:34:34.216Z,10.90
2018-04-08T03:37:02.523Z,11.77
2018-04-08T03:39:30.083Z,12.27
2018-04-08T03:41:58.386Z,12.60
2018-04-08T03:44:25.949Z,13.20
2018-04-08T03:46:53.498Z,11.90
2018-04-08T03:49:21.838Z,12.10
2018-04-08T03:51:49.391Z,12.40
2018-04-08T03:54:16.955Z,11.30
2018-04-08T03:56:44.510Z,12.50
2018-04-08T03:59:12.842Z,11.57
2018-04-08T04:01:40.390Z,11.43
2018-04-08T04:04:07.986Z,12.07
2018-04-08T04:06:35.966Z,11.77
2018-04-08T04:09:03.542Z,12.27
2018-04-08T04:11:31.097Z,10.87
2018-04-08T04:13:58.660Z,10.13
2018-04-08T04:16:26.209Z,11.40
2018-04-08T04:19:06.316Z,10.20
2018-04-08T04:21:45.664Z,11.30
2018-04-08T04:24:24.979Z,11.77
2018-04-08T04:26:52.549Z,11.40
2018-04-08T04:29:20.869Z,10.30
2018-04-08T04:31:48.439Z,10.10
2018-04-08T04:34:15.980Z,9.90
2018-04-08T04:36:44.308Z,9.83
2018-04-08T04:39:11.857Z,12.20
2018-04-08T04:41:39.424Z,10.30
2018-04-08T04:44:06.964Z,11.37
2018-04-08T04:46:34.538Z,11.87
2018-04-08T04:49:02.084Z,10.63
2018-04-08T04:51:30.413Z,10.87
2018-04-08T04:53:58.722Z,10.80
2018-04-08T04:56:26.292Z,11.00
2018-04-08T04:58:53.840Z,10.37
2018-04-08T05:01:22.165Z,9.90
2018-04-08T05:03:49.717Z,11.37
2018-04-08T05:06:18.044Z,10.50
2018-04-08T05:08:45.598Z,9.90
2018-04-08T05:11:13.173Z,10.57
2018-04-08T05:13:40.716Z,10.80
2018-04-08T05:16:09.057Z,10.70
2018-04-08T05:18:37.368Z,9.77
2018-04-08T05:21:04.934Z,8.87
2018-04-08T05:23:32.487Z,10.00
2018-04-08T05:26:00.056Z,10.30
2018-04-08T05:28:27.617Z,10.20
2018-04-08T05:30:55.187Z,10.10
2018-04-08T05:33:22.739Z,10.27
2018-04-08T05:35:50.323Z,9.70
2018-04-08T05:38:17.868Z,9.63
2018-04-08T05:40:46.216Z,9.80
2018-04-08T05:43:13.764Z,9.83
2018-04-08T05:45:41.318Z,10.03
2018-04-08T05:48:08.885Z,10.00
2018-04-08T05:50:36.452Z,10.67
2018-04-08T05:53:04.020Z,9.53
2018-04-08T05:55:31.569Z,9.50
2018-04-08T05:57:59.961Z,9.40
2018-04-08T06:00:27.494Z,9.00
2018-04-08T06:02:55.833Z,9.57
2018-04-08T06:05:24.144Z,9.13
2018-04-08T06:07:51.708Z,9.57
2018-04-08T06:10:19.263Z,8.87
2018-04-08T06:12:47.601Z,9.07
2018-04-08T06:15:15.148Z,8.17
2018-04-08T06:17:42.716Z,8.97
2018-04-08T06:20:10.264Z,9.67
2018-04-08T06:22:37.856Z,9.30
2018-04-08T06:25:05.404Z,9.57
2018-04-08T06:27:33.748Z,8.03
2018-04-08T06:30:01.294Z,8.97
2018-04-08T06:32:28.865Z,8.20
2018-04-08T06:34:56.419Z,8.20
2018-04-08T06:37:24.740Z,9.30
2018-04-08T06:39:52.284Z,9.00
2018-04-08T06:42:20.621Z,8.17
2018-04-08T06:44:48.163Z,9.00
2018-04-08T06:47:15.749Z,8.37
2018-04-08T06:49:43.296Z,7.83
2018-04-08T06:52:10.865Z,8.10
2018-04-08T06:54:38.413Z,8.30
2018-04-08T06:57:05.965Z,8.80
2018-04-08T06:59:33.533Z,8.20
2018-04-08T07:02:01.845Z,8.60
2018-04-08T07:04:29.416Z,7.80
2018-04-08T07:06:57.071Z,8.00
2018-04-08T07:09:24.676Z,7.67
2018-04-08T07:11:52.988Z,8.30
2018-04-08T07:14:20.546Z,7.40
2018-04-08T07:16:48.103Z,8.10
2018-04-08T07:19:16.441Z,7.20
2018-04-08T07:21:43.986Z,8.03
2018-04-08T07:24:11.559Z,7.63
2018-04-08T07:26:39.138Z,7.90
2018-04-08T07:29:06.797Z,8.03
2018-04-08T07:31:34.380Z,7.00
2018-04-08T07:34:01.946Z,7.87
2018-04-08T07:36:29.492Z,7.30
2018-04-08T07:38:57.182Z,7.97
2018-04-08T07:41:24.777Z,7.73
2018-04-08T07:43:52.344Z,6.57
2018-04-08T07:46:19.903Z,8.07
2018-04-08T07:48:48.241Z,7.20
2018-04-08T07:51:15.784Z,7.20
2018-04-08T07:53:43.348Z,7.70
2018-04-08T07:56:10.895Z,7.30
2018-04-08T07:58:39.226Z,6.97
2018-04-08T08:01:06.769Z,7.00
2018-04-08T08:03:34.333Z,7.00
2018-04-08T08:06:02.644Z,7.67
2018-04-08T08:08:30.212Z,7.67
2018-04-08T08:10:57.761Z,6.80
2018-04-08T08:13:26.075Z,7.87
2018-04-08T08:15:53.639Z,6.93
2018-04-08T08:18:21.234Z,7.20
2018-04-08T08:20:48.782Z,6.57
2018-04-08T08:23:16.329Z,6.80
2018-04-08T08:25:44.657Z,7.50
2018-04-08T08:28:12.200Z,7.27
2018-04-08T08:30:40.552Z,6.40
2018-04-08T08:33:08.098Z,7.00
2018-04-08T08:35:35.665Z,7.30
2018-04-08T08:38:03.209Z,7.00
2018-04-08T08:40:30.769Z,6.50
2018-04-08T08:42:59.081Z,6.63
2018-04-08T08:45:26.653Z,7.17
2018-04-08T08:47:54.202Z,5.67
2018-04-08T08:50:22.532Z,6.83
2018-04-08T08:52:50.071Z,7.33
2018-04-08T08:55:18.412Z,6.77
2018-04-08T08:57:45.957Z,6.50
2018-04-08T09:00:13.525Z,6.87
2018-04-08T09:02:41.073Z,7.20
2018-04-08T09:05:08.656Z,7.40
2018-04-08T09:07:36.200Z,8.17
2018-04-08T09:10:03.803Z,8.10
2018-04-08T09:12:31.348Z,7.07
2018-04-08T09:14:59.678Z,7.07
2018-04-08T09:17:27.232Z,6.30
2018-04-08T09:19:57.408Z,6.30
2018-04-08T09:22:25.742Z,6.10
2018-04-08T09:24:57.636Z,6.23
2018-04-08T09:27:25.205Z,6.40
2018-04-08T09:29:52.773Z,6.10
2018-04-08T09:32:20.320Z,6.40
2018-04-08T09:34:48.643Z,6.83
2018-04-08T09:37:16.185Z,6.47
2018-04-08T09:39:44.542Z,6.87
2018-04-08T09:42:12.090Z,6.73
2018-04-08T09:44:39.682Z,7.10
2018-04-08T09:47:07.227Z,6.43
2018-04-08T09:49:34.820Z,6.40
2018-04-08T09:52:02.383Z,6.67
2018-04-08T09:54:29.949Z,5.70
2018-04-08T09:56:57.485Z,6.60
2018-04-08T09:59:25.800Z,7.07
2018-04-08T10:02:12.024Z,7.20
2018-04-08T10:04:39.588Z,7.00
2018-04-08T10:07:07.133Z,6.80
2018-04-08T10:09:36.301Z,5.80
2018-04-08T10:12:03.884Z,6.97
2018-04-08T10:14:31.421Z,6.27
2018-04-08T10:16:58.996Z,5.73
2018-04-08T10:19:26.551Z,6.50
2018-04-08T10:21:54.116Z,6.10
2018-04-08T10:24:21.661Z,6.30
2018-04-08T10:26:50.025Z,6.37
2018-04-08T10:29:17.589Z,5.43
2018-04-08T10:31:45.156Z,6.00
2018-04-08T10:34:12.700Z,5.93
2018-04-08T10:36:40.269Z,6.30
2018-04-08T10:39:07.817Z,6.40
2018-04-08T10:41:35.392Z,5.63
2018-04-08T10:44:02.934Z,5.03
2018-04-08T10:46:30.499Z,5.83
2018-04-08T10:48:58.041Z,5.37
2018-04-08T10:51:25.609Z,5.40
2018-04-08T10:53:53.158Z,5.17
2018-04-08T10:56:20.723Z,4.97
2018-04-08T10:58:48.267Z,5.10
2018-04-08T11:01:15.832Z,5.27
2018-04-08T11:03:43.381Z,4.50
2018-04-08T11:06:10.948Z,4.57
2018-04-08T11:08:38.484Z,5.20
2018-04-08T11:11:06.088Z,4.40
2018-04-08T11:13:33.633Z,5.73
2018-04-08T11:16:01.202Z,5.27
2018-04-08T11:18:28.745Z,4.97
2018-04-08T11:20:57.072Z,4.93
2018-04-08T11:23:24.617Z,4.60
2018-04-08T11:25:52.192Z,4.60
2018-04-08T11:28:20.507Z,5.07
2018-04-08T11:30:48.073Z,5.80
2018-04-08T11:33:15.624Z,5.73
2018-04-08T11:35:43.187Z,5.27
2018-04-08T11:38:11.501Z,5.60
2018-04-08T11:40:39.064Z,5.13
2018-04-08T11:43:06.604Z,5.00
2018-04-08T11:45:34.183Z,4.83
2018-04-08T11:48:01.739Z,6.30
2018-04-08T11:50:29.293Z,4.23
2018-04-08T11:52:56.861Z,4.50
2018-04-08T11:55:25.169Z,4.80
2018-04-08T11:57:52.747Z,4.97
2018-04-08T12:00:20.295Z,4.83
2018-04-08T12:02:47.856Z,4.70
2018-04-08T12:05:15.416Z,5.80
2018-04-08T12:07:42.988Z,4.90
2018-04-08T12:10:10.534Z,5.10
2018-04-08T12:12:38.869Z,5.23
2018-04-08T12:15:06.416Z,4.83
2018-04-08T12:17:33.980Z,5.10
2018-04-08T12:20:01.528Z,5.30
2018-04-08T12:22:29.864Z,5.20
2018-04-08T12:24:57.420Z,4.70
2018-04-08T12:27:24.976Z,5.17
2018-04-08T12:29:52.521Z,5.20
2018-04-08T12:32:20.079Z,4.70
2018-04-08T12:34:47.629Z,5.50
2018-04-08T12:37:15.196Z,5.30
2018-04-08T12:39:42.737Z,5.47
2018-04-08T12:42:10.310Z,4.70
2018-04-08T12:44:37.853Z,5.60
2018-04-08T12:47:05.421Z,4.60
2018-04-08T12:49:32.968Z,4.50
2018-04-08T12:52:00.540Z,4.97
2018-04-08T12:54:28.090Z,5.60
2018-04-08T12:56:55.660Z,5.30
2018-04-08T12:59:23.204Z,5.40
2018-04-08T13:01:50.772Z,5.13
2018-04-08T13:04:19.130Z,4.70
2018-04-08T13:06:47.466Z,4.93
2018-04-08T13:09:15.037Z,4.23
2018-04-08T13:11:42.584Z,4.83
2018-04-08T13:14:10.950Z,4.17
2018-04-08T13:16:38.495Z,4.90
2018-04-08T13:19:06.064Z,4.27
2018-04-08T13:21:33.613Z,4.60
2018-04-08T13:24:01.176Z,4.20
2018-04-08T13:26:28.721Z,4.20
2018-04-08T13:28:56.289Z,4.57
2018-04-08T13:31:23.860Z,4.10
2018-04-08T13:33:51.443Z,4.00
2018-04-08T13:36:18.993Z,4.40
2018-04-08T13:38:47.320Z,3.90
2018-04-08T13:41:14.877Z,4.90
2018-04-08T13:43:43.204Z,4.40
2018-04-08T13:46:10.756Z,4.30
2018-04-08T13:48:38.325Z,4.20
2018-04-08T13:51:05.872Z,4.53
2018-04-08T13:53:34.204Z,4.97
2018-04-08T13:56:01.745Z,4.43
2018-04-08T13:58:30.126Z,4.60
2018-04-08T14:00:57.950Z,4.50
2018-04-08T14:03:25.520Z,4.30
2018-04-08T14:05:53.220Z,4.20
2018-04-08T14:08:21.559Z,4.60
2018-04-08T14:10:49.874Z,5.20
2018-04-08T14:13:17.441Z,6.47
2018-04-08T14:15:44.996Z,5.20
2018-04-08T14:18:12.607Z,5.90
2018-04-08T14:20:40.140Z,5.60
2018-04-08T14:23:07.704Z,4.90
2018-04-08T14:25:36.018Z,4.33
2018-04-08T14:28:03.570Z,5.00
2018-04-08T14:30:31.435Z,4.97
2018-04-08T14:32:59.745Z,4.50
2018-04-08T14:35:27.308Z,5.10
2018-04-08T14:37:55.617Z,4.90
2018-04-08T14:40:23.177Z,4.63
2018-04-08T14:42:50.796Z,5.10
2018-04-08T14:45:18.365Z,4.90
2018-04-08T14:47:46.683Z,4.33
2018-04-08T14:50:14.252Z,4.07
2018-04-08T14:52:42.575Z,4.87
2018-04-08T14:55:10.140Z,5.30
2018-04-08T14:57:37.696Z,5.20
2018-04-08T15:00:12.892Z,5.53
2018-04-08T15:02:41.031Z,4.90
2018-04-08T15:05:09.364Z,5.30
2018-04-08T15:07:36.908Z,4.73
2018-04-08T15:10:04.474Z,5.17
2018-04-08T15:12:32.783Z,4.90
2018-04-08T15:15:00.347Z,5.40
2018-04-08T15:17:27.899Z,4.67
2018-04-08T15:19:56.238Z,5.20
2018-04-08T15:22:23.808Z,5.30
2018-04-08T15:24:51.369Z,4.47
2018-04-08T15:27:18.916Z,4.67
2018-04-08T15:29:47.255Z,4.93
2018-04-08T15:32:14.805Z,4.20
2018-04-08T15:34:42.373Z,4.40
2018-04-08T15:37:09.984Z,4.20
2018-04-08T15:39:37.530Z,4.83
2018-04-08T15:42:05.073Z,4.17
2018-04-08T15:44:33.400Z,4.27
2018-04-08T15:47:00.947Z,4.57
2018-04-08T15:49:29.442Z,4.40
2018-04-08T15:51:56.992Z,4.13
2018-04-08T15:54:25.328Z,4.57
2018-04-08T15:56:52.874Z,4.57
2018-04-08T15:59:20.420Z,4.77
2018-04-08T16:01:47.990Z,4.43
2018-04-08T16:04:16.304Z,4.30
2018-04-08T16:06:43.873Z,4.07
2018-04-08T16:09:11.420Z,4.13
2018-04-08T16:11:39.762Z,4.90
2018-04-08T16:14:07.400Z,4.07
2018-04-08T16:16:34.991Z,3.60
2018-04-08T16:19:02.542Z,4.63
2018-04-08T16:21:30.877Z,4.00
2018-04-08T16:23:58.424Z,4.73
2018-04-08T16:26:25.990Z,4.83
2018-04-08T16:28:53.532Z,4.77
2018-04-08T16:31:22.029Z,4.20
2018-04-08T16:33:50.336Z,4.33
2018-04-08T16:36:17.905Z,3.97
2018-04-08T16:38:45.457Z,4.83
2018-04-08T16:41:13.034Z,4.63
2018-04-08T16:43:41.388Z,4.73
2018-04-08T16:46:08.956Z,3.97
2018-04-08T16:48:36.533Z,4.90
2018-04-08T16:51:04.169Z,4.97
2018-04-08T16:53:31.716Z,4.33
2018-04-08T16:56:00.055Z,4.30
2018-04-08T16:58:27.604Z,4.47
2018-04-08T17:00:55.229Z,4.10
2018-04-08T17:05:57.000Z,4.13
2018-04-08T17:08:24.536Z,4.93
2018-04-08T17:10:52.875Z,4.40
2018-04-08T17:13:20.522Z,4.30
2018-04-08T17:15:48.069Z,4.50
2018-04-08T17:18:16.393Z,4.37
2018-04-08T17:20:43.938Z,3.90
2018-04-08T17:23:11.508Z,4.00
2018-04-08T17:25:39.056Z,4.37
2018-04-08T17:28:12.192Z,4.30
2018-04-08T17:30:40.476Z,4.57
2018-04-08T17:33:10.819Z,4.60
2018-04-08T17:35:38.556Z,4.70
2018-04-08T17:38:06.116Z,4.60
2018-04-08T17:40:33.666Z,4.93
2018-04-08T17:43:01.236Z,6.03
2018-04-08T17:45:28.785Z,5.47
2018-04-08T17:47:56.363Z,5.67
2018-04-08T17:50:23.913Z,5.17
2018-04-08T17:52:51.484Z,5.90
2018-04-08T17:55:19.804Z,6.97
2018-04-08T17:57:47.387Z,6.50
2018-04-08T18:00:14.935Z,6.07
2018-04-08T18:02:46.043Z,6.40
2018-04-08T18:05:13.591Z,6.23
2018-04-08T18:07:41.161Z,5.97
2018-04-08T18:10:08.717Z,6.13
2018-04-08T18:12:36.288Z,5.77
2018-04-08T18:15:03.876Z,5.43
2018-04-08T18:17:31.431Z,5.50
2018-04-08T18:19:58.983Z,5.30
2018-04-08T18:22:26.552Z,5.03
2018-04-08T18:24:54.102Z,5.50
2018-04-08T18:27:22.436Z,5.17
2018-04-08T18:29:49.989Z,5.70
2018-04-08T18:32:18.355Z,5.73
2018-04-08T18:34:46.692Z,4.90
2018-04-08T18:37:14.270Z,5.20
2018-04-08T18:39:41.835Z,5.47
2018-04-08T18:42:09.382Z,5.20
2018-04-08T18:44:36.954Z,5.23
2018-04-08T18:47:04.507Z,6.10
2018-04-08T18:49:32.839Z,5.93
2018-04-08T18:52:00.390Z,5.70
2018-04-08T18:54:27.953Z,5.40
2018-04-08T18:56:55.501Z,7.33
2018-04-08T18:59:23.843Z,7.40
2018-04-08T19:01:51.422Z,6.80
2018-04-08T19:04:19.001Z,6.87
2018-04-08T19:06:46.553Z,7.70
2018-04-08T19:09:14.130Z,5.70
2018-04-08T19:11:41.684Z,15.37
2018-04-08T19:14:09.249Z,12.73
2018-04-08T19:16:37.073Z,8.07
2018-04-08T19:19:04.633Z,6.90
2018-04-08T19:21:32.181Z,6.90
2018-04-08T19:23:59.745Z,8.40
2018-04-08T19:26:27.288Z,8.20
2018-04-08T19:28:55.626Z,7.17
2018-04-08T19:31:23.178Z,8.50
2018-04-08T19:33:50.743Z,7.40
2018-04-08T19:36:18.387Z,8.30
2018-04-08T19:38:46.724Z,8.10
2018-04-08T19:41:14.262Z,7.57
2018-04-08T19:43:42.601Z,7.90
2018-04-08T19:46:10.148Z,7.93
2018-04-08T19:48:37.739Z,8.50
2018-04-08T19:51:05.313Z,9.00
2018-04-08T19:53:32.861Z,8.63
2018-04-08T19:56:00.419Z,8.07
2018-04-08T19:58:28.823Z,9.53
2018-04-08T20:00:56.388Z,9.33
2018-04-08T20:03:23.941Z,9.50
2018-04-08T20:05:52.276Z,9.27
2018-04-08T20:08:19.821Z,9.27
2018-04-08T20:10:48.238Z,10.40
2018-04-08T20:13:15.811Z,9.60
2018-04-08T20:15:43.372Z,9.17
2018-04-08T20:18:11.139Z,8.80
2018-04-08T20:20:39.456Z,9.87
2018-04-08T20:23:07.029Z,9.30
2018-04-08T20:25:34.608Z,9.70
2018-04-08T20:28:02.152Z,10.60
2018-04-08T20:30:29.878Z,10.17
2018-04-08T20:32:57.461Z,9.63
2018-04-08T20:35:25.813Z,10.00
2018-04-08T20:37:53.561Z,10.13
2018-04-08T20:40:21.257Z,9.33
2018-04-08T20:42:48.885Z,10.63
2018-04-08T20:45:17.322Z,11.23
2018-04-08T20:47:45.656Z,11.60
2018-04-08T20:50:13.232Z,11.20
2018-04-08T20:52:40.778Z,10.20
2018-04-08T20:55:08.343Z,10.87
2018-04-08T20:57:35.885Z,11.77
2018-04-08T21:00:03.456Z,13.03
2018-04-08T21:02:31.000Z,10.70
2018-04-08T21:04:59.390Z,10.93
2018-04-08T21:07:27.724Z,11.00
2018-04-08T21:09:55.281Z,10.70
2018-04-08T21:12:22.853Z,11.40
2018-04-08T21:14:50.396Z,12.77
2018-04-08T21:17:18.733Z,11.57
2018-04-08T21:19:46.292Z,12.10
2018-04-08T21:22:13.868Z,12.83
2018-04-08T21:24:41.423Z,12.40
2018-04-08T21:27:08.992Z,12.77
2018-04-08T21:29:36.544Z,12.40
2018-04-08T21:32:04.881Z,11.63
2018-04-08T21:34:32.434Z,12.40
2018-04-08T21:36:59.996Z,15.87
2018-04-08T21:39:27.539Z,19.20
2018-04-08T21:41:55.114Z,12.07
2018-04-08T21:44:22.656Z,10.80
2018-04-08T21:46:50.593Z,13.20
2018-04-08T21:49:18.218Z,13.53
2018-04-08T21:51:45.781Z,12.73
2018-04-08T21:54:13.323Z,12.00
2018-04-08T21:56:40.890Z,11.87
2018-04-08T21:59:08.432Z,13.23
2018-04-08T22:01:36.766Z,12.57
2018-04-08T22:04:04.313Z,12.17
2018-04-08T22:06:31.884Z,13.63
2018-04-08T22:08:59.435Z,12.77
2018-04-08T22:11:27.764Z,16.10
2018-04-08T22:13:55.312Z,18.63
2018-04-08T22:16:22.861Z,15.07
2018-04-08T22:18:50.432Z,14.07
2018-04-08T22:21:17.976Z,20.03
2018-04-08T22:23:45.568Z,18.20
2018-04-08T22:26:13.116Z,16.13
2018-04-08T22:28:40.685Z,16.90
2018-04-08T22:31:08.239Z,16.00
2018-04-08T22:33:35.804Z,15.00
2018-04-08T22:36:03.344Z,17.03
2018-04-08T22:38:31.685Z,17.17
2018-04-08T22:40:59.245Z,16.93
2018-04-08T22:43:26.821Z,16.80
2018-04-08T22:45:54.392Z,17.17
2018-04-08T22:48:21.961Z,15.40
2018-04-08T22:50:49.526Z,17.40
2018-04-08T22:53:17.094Z,16.40
2018-04-08T22:55:44.633Z,15.00
2018-04-08T22:58:12.960Z,14.70
2018-04-08T23:00:40.524Z,17.57
2018-04-08T23:03:08.096Z,16.80
2018-04-08T23:05:35.637Z,15.33
2018-04-08T23:08:03.973Z,16.30
2018-04-08T23:10:31.568Z,17.27
2018-04-08T23:12:59.132Z,16.67
2018-04-08T23:15:26.709Z,17.27
2018-04-08T23:17:54.271Z,19.27
2018-04-08T23:20:22.589Z,17.50
2018-04-08T23:22:50.152Z,19.10
2018-04-08T23:25:17.704Z,16.53
2018-04-08T23:27:45.289Z,18.60
2018-04-08T23:30:12.839Z,18.17
2018-04-08T23:32:40.388Z,19.37
2018-04-08T23:35:08.009Z,17.10
2018-04-08T23:37:35.519Z,17.50
2018-04-08T23:40:03.082Z,14.40
2018-04-08T23:42:31.393Z,14.80
2018-04-08T23:44:58.985Z,15.57
2018-04-08T23:47:26.527Z,15.90
2018-04-08T23:49:54.088Z,16.40
2018-04-08T23:52:22.407Z,17.00
2018-04-08T23:54:49.975Z,17.90
2018-04-08T23:57:17.524Z,17.20
2018-04-08T23:59:46.404Z,19.03
